sensor_id;sensor_type;location;lat;lon;timestamp;pressure;altitude;pressure_sealevel;temperature;humidity
75455;BME280;64035;48.358;2.122;2022-10-16T00:00:43;100386.97;;;15.54;81.23
75455;BME280;64035;48.358;2.122;2022-10-16T00:01:43;100383.50;;;15.53;81.39
75455;BME280;64035;48.358;2.122;2022-10-16T00:02:43;100384.31;;;15.52;80.90
75455;BME280;64035;48.358;2.122;2022-10-16T00:03:44;100378.28;;;15.52;81.40
75455;BME280;64035;48.358;2.122;2022-10-16T00:04:45;100385.22;;;15.53;81.10
75455;BME280;64035;48.358;2.122;2022-10-16T00:05:46;100389.41;;;15.51;81.06
75455;BME280;64035;48.358;2.122;2022-10-16T00:06:46;100390.28;;;15.51;81.54
75455;BME280;64035;48.358;2.122;2022-10-16T00:07:47;100388.53;;;15.50;81.42
75455;BME280;64035;48.358;2.122;2022-10-16T00:08:48;100379.91;;;15.48;81.19
75455;BME280;64035;48.358;2.122;2022-10-16T00:09:48;100371.31;;;15.49;81.35
75455;BME280;64035;48.358;2.122;2022-10-16T00:10:48;100369.59;;;15.48;81.17
75455;BME280;64035;48.358;2.122;2022-10-16T00:11:49;100379.06;;;15.49;81.13
75455;BME280;64035;48.358;2.122;2022-10-16T00:12:49;100380.69;;;15.46;81.38
75455;BME280;64035;48.358;2.122;2022-10-16T00:13:51;100388.47;;;15.47;81.25
75455;BME280;64035;48.358;2.122;2022-10-16T00:14:54;100390.19;;;15.47;81.28
75455;BME280;64035;48.358;2.122;2022-10-16T00:15:56;100390.91;;;15.43;81.42
75455;BME280;64035;48.358;2.122;2022-10-16T00:16:56;100385.75;;;15.43;81.46
75455;BME280;64035;48.358;2.122;2022-10-16T00:17:56;100383.97;;;15.40;81.67
75455;BME280;64035;48.358;2.122;2022-10-16T00:18:57;100388.34;;;15.43;81.40
75455;BME280;64035;48.358;2.122;2022-10-16T00:19:58;100387.44;;;15.41;81.36
75455;BME280;64035;48.358;2.122;2022-10-16T00:21:06;100388.22;;;15.38;81.32
75455;BME280;64035;48.358;2.122;2022-10-16T00:22:07;100391.63;;;15.37;81.58
75455;BME280;64035;48.358;2.122;2022-10-16T00:23:07;100398.59;;;15.40;81.31
75455;BME280;64035;48.358;2.122;2022-10-16T00:24:09;100397.59;;;15.36;81.35
75455;BME280;64035;48.358;2.122;2022-10-16T00:25:09;100395.84;;;15.35;81.75
75455;BME280;64035;48.358;2.122;2022-10-16T00:26:13;100397.66;;;15.38;81.20
75455;BME280;64035;48.358;2.122;2022-10-16T00:27:14;100395.91;;;15.37;81.39
75455;BME280;64035;48.358;2.122;2022-10-16T00:28:14;100392.50;;;15.38;81.28
75455;BME280;64035;48.358;2.122;2022-10-16T00:29:15;100408.84;;;15.38;81.38
75455;BME280;64035;48.358;2.122;2022-10-16T00:30:15;100396.72;;;15.36;81.19
75455;BME280;64035;48.358;2.122;2022-10-16T00:31:17;100401.00;;;15.35;81.47
75455;BME280;64035;48.358;2.122;2022-10-16T00:32:19;100392.44;;;15.36;81.52
75455;BME280;64035;48.358;2.122;2022-10-16T00:33:19;100388.16;;;15.37;81.32
75455;BME280;64035;48.358;2.122;2022-10-16T00:34:20;100382.09;;;15.35;81.32
75455;BME280;64035;48.358;2.122;2022-10-16T00:35:21;100380.38;;;15.35;81.39
75455;BME280;64035;48.358;2.122;2022-10-16T00:36:23;100382.97;;;15.35;81.31
75455;BME280;64035;48.358;2.122;2022-10-16T00:37:24;100382.97;;;15.35;81.37
75455;BME280;64035;48.358;2.122;2022-10-16T00:38:24;100393.28;;;15.35;81.41
75455;BME280;64035;48.358;2.122;2022-10-16T00:39:25;100390.69;;;15.34;81.31
75455;BME280;64035;48.358;2.122;2022-10-16T00:40:25;100390.69;;;15.35;81.14
75455;BME280;64035;48.358;2.122;2022-10-16T00:41:27;100396.72;;;15.34;81.00
75455;BME280;64035;48.358;2.122;2022-10-16T00:42:27;100397.56;;;15.35;81.22
75455;BME280;64035;48.358;2.122;2022-10-16T00:43:38;100389.88;;;15.36;81.28
75455;BME280;64035;48.358;2.122;2022-10-16T00:45:46;100399.28;;;15.34;80.97
75455;BME280;64035;48.358;2.122;2022-10-16T00:46:46;100395.78;;;15.32;81.06
75455;BME280;64035;48.358;2.122;2022-10-16T00:47:48;100399.28;;;15.34;81.24
75455;BME280;64035;48.358;2.122;2022-10-16T00:48:59;100400.91;;;15.31;81.23
75455;BME280;64035;48.358;2.122;2022-10-16T00:50:24;100400.03;;;15.30;81.57
75455;BME280;64035;48.358;2.122;2022-10-16T00:51:31;100406.94;;;15.31;81.18
75455;BME280;64035;48.358;2.122;2022-10-16T00:52:32;100396.56;;;15.30;81.28
75455;BME280;64035;48.358;2.122;2022-10-16T00:53:34;100401.78;;;15.31;81.47
75455;BME280;64035;48.358;2.122;2022-10-16T00:54:35;100392.28;;;15.30;81.02
75455;BME280;64035;48.358;2.122;2022-10-16T00:55:36;100393.09;;;15.29;81.03
75455;BME280;64035;48.358;2.122;2022-10-16T00:56:36;100394.81;;;15.29;81.53
75455;BME280;64035;48.358;2.122;2022-10-16T00:57:38;100400.03;;;15.30;81.44
75455;BME280;64035;48.358;2.122;2022-10-16T00:58:39;100399.16;;;15.30;81.20
75455;BME280;64035;48.358;2.122;2022-10-16T00:59:41;100394.84;;;15.30;81.34
75455;BME280;64035;48.358;2.122;2022-10-16T01:00:42;100404.31;;;15.30;81.52
75455;BME280;64035;48.358;2.122;2022-10-16T01:01:42;100397.44;;;15.30;81.75
75455;BME280;64035;48.358;2.122;2022-10-16T01:02:43;100410.34;;;15.30;81.49
75455;BME280;64035;48.358;2.122;2022-10-16T01:03:43;100412.03;;;15.30;81.36
75455;BME280;64035;48.358;2.122;2022-10-16T01:05:02;100405.19;;;15.30;81.40
75455;BME280;64035;48.358;2.122;2022-10-16T01:08:06;100408.59;;;15.29;80.92
75455;BME280;64035;48.358;2.122;2022-10-16T01:09:16;100401.66;;;15.28;81.32
75455;BME280;64035;48.358;2.122;2022-10-16T01:10:30;100399.94;;;15.27;81.50
75455;BME280;64035;48.358;2.122;2022-10-16T01:11:56;100385.31;;;15.28;81.21
75455;BME280;64035;48.358;2.122;2022-10-16T01:14:22;100381.84;;;15.26;81.33
75455;BME280;64035;48.358;2.122;2022-10-16T01:16:57;100397.31;;;15.26;81.39
75455;BME280;64035;48.358;2.122;2022-10-16T01:19:31;100388.66;;;15.23;81.54
75455;BME280;64035;48.358;2.122;2022-10-16T01:20:45;100393.81;;;15.23;81.23
75455;BME280;64035;48.358;2.122;2022-10-16T01:21:50;100396.41;;;15.23;81.23
75455;BME280;64035;48.358;2.122;2022-10-16T01:24:29;100411.00;;;15.23;81.39
75455;BME280;64035;48.358;2.122;2022-10-16T01:27:16;100398.03;;;15.21;81.09
75455;BME280;64035;48.358;2.122;2022-10-16T01:28:24;100397.16;;;15.21;81.55
75455;BME280;64035;48.358;2.122;2022-10-16T01:30:33;100390.31;;;15.21;80.82
75455;BME280;64035;48.358;2.122;2022-10-16T01:31:39;100387.72;;;15.21;81.37
75455;BME280;64035;48.358;2.122;2022-10-16T01:32:44;100383.41;;;15.20;81.12
75455;BME280;64035;48.358;2.122;2022-10-16T01:33:51;100392.00;;;15.19;81.21
75455;BME280;64035;48.358;2.122;2022-10-16T01:35:05;100382.47;;;15.17;81.48
75455;BME280;64035;48.358;2.122;2022-10-16T01:36:22;100389.41;;;15.19;81.29
75455;BME280;64035;48.358;2.122;2022-10-16T01:37:35;100389.38;;;15.18;81.39
75455;BME280;64035;48.358;2.122;2022-10-16T01:38:39;100392.81;;;15.18;81.18
75455;BME280;64035;48.358;2.122;2022-10-16T01:39:41;100393.72;;;15.20;81.36
75455;BME280;64035;48.358;2.122;2022-10-16T01:40:49;100393.69;;;15.19;81.36
75455;BME280;64035;48.358;2.122;2022-10-16T01:42:12;100395.41;;;15.18;81.39
75455;BME280;64035;48.358;2.122;2022-10-16T01:43:24;100397.97;;;15.18;81.35
75455;BME280;64035;48.358;2.122;2022-10-16T01:44:29;100401.38;;;15.17;81.13
75455;BME280;64035;48.358;2.122;2022-10-16T01:45:32;100414.28;;;15.17;81.11
75455;BME280;64035;48.358;2.122;2022-10-16T01:46:36;100424.59;;;15.17;81.01
75455;BME280;64035;48.358;2.122;2022-10-16T01:47:39;100427.16;;;15.17;81.17
75455;BME280;64035;48.358;2.122;2022-10-16T01:48:40;100433.16;;;15.16;81.45
75455;BME280;64035;48.358;2.122;2022-10-16T01:49:42;100434.91;;;15.17;81.48
75455;BME280;64035;48.358;2.122;2022-10-16T01:50:56;100434.03;;;15.17;81.09
75455;BME280;64035;48.358;2.122;2022-10-16T01:51:59;100434.03;;;15.17;81.20
75455;BME280;64035;48.358;2.122;2022-10-16T01:53:02;100432.28;;;15.16;81.03
75455;BME280;64035;48.358;2.122;2022-10-16T01:54:06;100434.84;;;15.16;81.08
75455;BME280;64035;48.358;2.122;2022-10-16T01:55:10;100434.91;;;15.17;81.45
75455;BME280;64035;48.358;2.122;2022-10-16T01:56:13;100428.00;;;15.16;81.21
75455;BME280;64035;48.358;2.122;2022-10-16T01:57:16;100421.97;;;15.16;81.41
75455;BME280;64035;48.358;2.122;2022-10-16T01:58:17;100422.72;;;15.13;80.99
75455;BME280;64035;48.358;2.122;2022-10-16T01:59:25;100427.00;;;15.13;81.35
75455;BME280;64035;48.358;2.122;2022-10-16T02:00:26;100421.91;;;15.14;81.55
75455;BME280;64035;48.358;2.122;2022-10-16T02:01:29;100415.00;;;15.13;81.13
75455;BME280;64035;48.358;2.122;2022-10-16T02:02:32;100421.91;;;15.14;81.47
75455;BME280;64035;48.358;2.122;2022-10-16T02:03:34;100422.72;;;15.13;81.20
75455;BME280;64035;48.358;2.122;2022-10-16T02:04:43;100417.63;;;15.15;81.52
75455;BME280;64035;48.358;2.122;2022-10-16T02:05:56;100415.88;;;15.14;81.44
75455;BME280;64035;48.358;2.122;2022-10-16T02:06:58;100421.03;;;15.14;81.54
75455;BME280;64035;48.358;2.122;2022-10-16T02:07:59;100422.72;;;15.13;81.43
75455;BME280;64035;48.358;2.122;2022-10-16T02:08:59;100429.59;;;15.13;81.48
75455;BME280;64035;48.358;2.122;2022-10-16T02:10:00;100426.16;;;15.12;81.23
75455;BME280;64035;48.358;2.122;2022-10-16T02:11:01;100439.91;;;15.13;81.59
75455;BME280;64035;48.358;2.122;2022-10-16T02:12:21;100440.78;;;15.13;81.43
75455;BME280;64035;48.358;2.122;2022-10-16T02:13:29;100446.81;;;15.14;81.44
75455;BME280;64035;48.358;2.122;2022-10-16T02:14:32;100441.66;;;15.14;81.71
75455;BME280;64035;48.358;2.122;2022-10-16T02:15:32;100440.75;;;15.12;81.37
75455;BME280;64035;48.358;2.122;2022-10-16T02:16:45;100442.47;;;15.11;81.25
75455;BME280;64035;48.358;2.122;2022-10-16T02:17:45;100442.47;;;15.11;81.53
75455;BME280;64035;48.358;2.122;2022-10-16T02:18:46;100433.84;;;15.11;81.33
75455;BME280;64035;48.358;2.122;2022-10-16T02:19:49;100445.03;;;15.11;81.46
75455;BME280;64035;48.358;2.122;2022-10-16T02:20:55;100446.00;;;15.15;81.10
75455;BME280;64035;48.358;2.122;2022-10-16T02:22:04;100440.78;;;15.13;81.53
75455;BME280;64035;48.358;2.122;2022-10-16T02:23:07;100439.91;;;15.13;81.46
75455;BME280;64035;48.358;2.122;2022-10-16T02:25:30;100445.91;;;15.12;81.19
75455;BME280;64035;48.358;2.122;2022-10-16T02:28:17;100445.94;;;15.13;81.28
75455;BME280;64035;48.358;2.122;2022-10-16T02:29:22;100452.78;;;15.13;81.46
75455;BME280;64035;48.358;2.122;2022-10-16T02:30:28;100456.25;;;15.13;81.48
75455;BME280;64035;48.358;2.122;2022-10-16T02:31:32;100453.66;;;15.12;81.62
75455;BME280;64035;48.358;2.122;2022-10-16T02:32:37;100451.09;;;15.13;81.44
75455;BME280;64035;48.358;2.122;2022-10-16T02:33:38;100449.38;;;15.12;81.30
75455;BME280;64035;48.358;2.122;2022-10-16T02:34:40;100451.94;;;15.12;81.41
75455;BME280;64035;48.358;2.122;2022-10-16T02:35:43;100455.34;;;15.11;81.54
75455;BME280;64035;48.358;2.122;2022-10-16T02:36:45;100457.94;;;15.13;81.31
75455;BME280;64035;48.358;2.122;2022-10-16T02:37:48;100454.53;;;15.12;81.92
75455;BME280;64035;48.358;2.122;2022-10-16T02:38:50;100446.81;;;15.14;81.48
75455;BME280;64035;48.358;2.122;2022-10-16T02:39:51;100448.50;;;15.13;81.25
75455;BME280;64035;48.358;2.122;2022-10-16T02:40:52;100449.38;;;15.14;81.17
75455;BME280;64035;48.358;2.122;2022-10-16T02:41:53;100449.38;;;15.12;81.63
75455;BME280;64035;48.358;2.122;2022-10-16T02:42:54;100454.53;;;15.12;81.75
75455;BME280;64035;48.358;2.122;2022-10-16T02:43:55;100451.06;;;15.12;81.48
75455;BME280;64035;48.358;2.122;2022-10-16T02:44:55;100445.81;;;15.09;81.52
75455;BME280;64035;48.358;2.122;2022-10-16T02:45:55;100446.78;;;15.12;81.67
75455;BME280;64035;48.358;2.122;2022-10-16T02:46:56;100444.22;;;15.14;81.58
75455;BME280;64035;48.358;2.122;2022-10-16T02:47:56;100439.00;;;15.11;81.42
75455;BME280;64035;48.358;2.122;2022-10-16T02:48:57;100433.03;;;15.12;81.32
75455;BME280;64035;48.358;2.122;2022-10-16T02:49:57;100429.59;;;15.13;81.50
75455;BME280;64035;48.358;2.122;2022-10-16T02:50:57;100433.91;;;15.14;80.87
75455;BME280;64035;48.358;2.122;2022-10-16T02:51:58;100437.44;;;15.16;81.21
75455;BME280;64035;48.358;2.122;2022-10-16T02:52:58;100433.09;;;15.15;81.64
75455;BME280;64035;48.358;2.122;2022-10-16T02:53:59;100426.16;;;15.12;81.55
75455;BME280;64035;48.358;2.122;2022-10-16T02:54:59;100427.00;;;15.13;81.63
75455;BME280;64035;48.358;2.122;2022-10-16T02:55:59;100427.00;;;15.13;81.57
75455;BME280;64035;48.358;2.122;2022-10-16T02:57:00;100425.31;;;15.13;81.61
75455;BME280;64035;48.358;2.122;2022-10-16T02:58:00;100416.69;;;15.13;81.69
75455;BME280;64035;48.358;2.122;2022-10-16T02:59:00;100423.59;;;15.14;81.69
75455;BME280;64035;48.358;2.122;2022-10-16T03:00:01;100427.88;;;15.13;81.76
75455;BME280;64035;48.358;2.122;2022-10-16T03:01:01;100429.59;;;15.13;81.66
75455;BME280;64035;48.358;2.122;2022-10-16T03:02:01;100433.91;;;15.14;81.64
75455;BME280;64035;48.358;2.122;2022-10-16T03:03:02;100425.31;;;15.13;81.49
75455;BME280;64035;48.358;2.122;2022-10-16T03:04:02;100425.28;;;15.12;81.65
75455;BME280;64035;48.358;2.122;2022-10-16T03:05:03;100419.25;;;15.11;81.73
75455;BME280;64035;48.358;2.122;2022-10-16T03:06:04;100421.00;;;15.12;81.49
75455;BME280;64035;48.358;2.122;2022-10-16T03:07:04;100424.41;;;15.11;81.64
75455;BME280;64035;48.358;2.122;2022-10-16T03:08:05;100425.28;;;15.12;81.64
75455;BME280;64035;48.358;2.122;2022-10-16T03:09:05;100421.84;;;15.13;81.43
75455;BME280;64035;48.358;2.122;2022-10-16T03:10:06;100427.00;;;15.11;81.73
75455;BME280;64035;48.358;2.122;2022-10-16T03:11:07;100437.38;;;15.14;81.66
75455;BME280;64035;48.358;2.122;2022-10-16T03:12:07;100438.19;;;15.13;81.97
75455;BME280;64035;48.358;2.122;2022-10-16T03:13:08;100442.53;;;15.14;81.58
75455;BME280;64035;48.358;2.122;2022-10-16T03:14:08;100435.66;;;15.15;81.65
75455;BME280;64035;48.358;2.122;2022-10-16T03:15:09;100440.78;;;15.13;81.79
75455;BME280;64035;48.358;2.122;2022-10-16T03:16:09;100438.25;;;15.15;81.58
75455;BME280;64035;48.358;2.122;2022-10-16T03:17:10;100446.88;;;15.15;81.96
75455;BME280;64035;48.358;2.122;2022-10-16T03:18:10;100438.25;;;15.15;81.63
75455;BME280;64035;48.358;2.122;2022-10-16T03:19:10;100440.88;;;15.16;81.63
75455;BME280;64035;48.358;2.122;2022-10-16T03:20:11;100442.59;;;15.16;81.73
75455;BME280;64035;48.358;2.122;2022-10-16T03:21:11;100431.41;;;15.15;81.58
75455;BME280;64035;48.358;2.122;2022-10-16T03:22:12;100437.38;;;15.14;81.69
75455;BME280;64035;48.358;2.122;2022-10-16T03:23:13;100432.28;;;15.16;81.50
75455;BME280;64035;48.358;2.122;2022-10-16T03:24:13;100431.34;;;15.14;81.83
75455;BME280;64035;48.358;2.122;2022-10-16T03:25:14;100429.63;;;15.14;81.42
75455;BME280;64035;48.358;2.122;2022-10-16T03:26:14;100426.19;;;15.14;81.65
75455;BME280;64035;48.358;2.122;2022-10-16T03:27:14;100424.44;;;15.13;81.87
75455;BME280;64035;48.358;2.122;2022-10-16T03:28:15;100427.94;;;15.15;81.80
75455;BME280;64035;48.358;2.122;2022-10-16T03:29:15;100430.47;;;15.13;81.77
75455;BME280;64035;48.358;2.122;2022-10-16T03:30:16;100440.84;;;15.15;81.40
75455;BME280;64035;48.358;2.122;2022-10-16T03:31:16;100445.06;;;15.13;81.87
75455;BME280;64035;48.358;2.122;2022-10-16T03:32:17;100446.88;;;15.15;81.84
75455;BME280;64035;48.358;2.122;2022-10-16T03:33:18;100447.75;;;15.16;81.62
75455;BME280;64035;48.358;2.122;2022-10-16T03:34:18;100442.53;;;15.14;81.80
75455;BME280;64035;48.358;2.122;2022-10-16T03:35:22;100441.66;;;15.14;81.89
75455;BME280;64035;48.358;2.122;2022-10-16T03:36:23;100439.06;;;15.12;81.96
75455;BME280;64035;48.358;2.122;2022-10-16T03:37:23;100452.84;;;15.14;81.66
75455;BME280;64035;48.358;2.122;2022-10-16T03:38:24;100443.34;;;15.13;81.89
75455;BME280;64035;48.358;2.122;2022-10-16T03:39:24;100443.41;;;15.15;81.62
75455;BME280;64035;48.358;2.122;2022-10-16T03:40:25;100430.47;;;15.13;81.72
75455;BME280;64035;48.358;2.122;2022-10-16T03:41:25;100424.47;;;15.14;81.89
75455;BME280;64035;48.358;2.122;2022-10-16T03:42:26;100421.97;;;15.16;81.85
75455;BME280;64035;48.358;2.122;2022-10-16T03:43:26;100430.56;;;15.16;81.50
75455;BME280;64035;48.358;2.122;2022-10-16T03:44:26;100416.81;;;15.16;81.81
75455;BME280;64035;48.358;2.122;2022-10-16T03:45:27;100427.06;;;15.14;81.84
75455;BME280;64035;48.358;2.122;2022-10-16T03:46:27;100427.13;;;15.16;81.63
75455;BME280;64035;48.358;2.122;2022-10-16T03:47:28;100427.94;;;15.15;81.79
75455;BME280;64035;48.358;2.122;2022-10-16T03:48:28;100428.00;;;15.16;81.48
75455;BME280;64035;48.358;2.122;2022-10-16T03:49:29;100434.03;;;15.17;81.73
75455;BME280;64035;48.358;2.122;2022-10-16T03:50:29;100440.06;;;15.17;81.99
75455;BME280;64035;48.358;2.122;2022-10-16T03:51:30;100431.44;;;15.17;81.86
75455;BME280;64035;48.358;2.122;2022-10-16T03:52:30;100431.44;;;15.17;81.90
75455;BME280;64035;48.358;2.122;2022-10-16T03:53:32;100426.19;;;15.14;81.69
75455;BME280;64035;48.358;2.122;2022-10-16T03:54:32;100427.13;;;15.16;81.59
75455;BME280;64035;48.358;2.122;2022-10-16T03:55:32;100429.69;;;15.16;81.92
75455;BME280;64035;48.358;2.122;2022-10-16T03:56:33;100421.09;;;15.15;81.89
75455;BME280;64035;48.358;2.122;2022-10-16T03:57:33;100426.25;;;15.15;81.87
75455;BME280;64035;48.358;2.122;2022-10-16T03:58:33;100431.41;;;15.15;82.06
75455;BME280;64035;48.358;2.122;2022-10-16T03:59:34;100436.56;;;15.15;81.70
75455;BME280;64035;48.358;2.122;2022-10-16T04:00:34;100430.50;;;15.15;81.72
75455;BME280;64035;48.358;2.122;2022-10-16T04:01:35;100430.56;;;15.16;81.99
75455;BME280;64035;48.358;2.122;2022-10-16T04:02:35;100425.31;;;15.13;81.80
75455;BME280;64035;48.358;2.122;2022-10-16T04:03:35;100430.56;;;15.16;81.32
75455;BME280;64035;48.358;2.122;2022-10-16T04:04:36;100436.56;;;15.15;82.11
75455;BME280;64035;48.358;2.122;2022-10-16T04:05:36;100427.06;;;15.14;81.68
75455;BME280;64035;48.358;2.122;2022-10-16T04:06:37;100421.84;;;15.13;81.66
75455;BME280;64035;48.358;2.122;2022-10-16T04:07:37;100428.81;;;15.15;81.85
75455;BME280;64035;48.358;2.122;2022-10-16T04:08:38;100424.47;;;15.14;81.75
75455;BME280;64035;48.358;2.122;2022-10-16T04:09:39;100435.72;;;15.16;82.04
75455;BME280;64035;48.358;2.122;2022-10-16T04:10:39;100437.38;;;15.14;81.99
75455;BME280;64035;48.358;2.122;2022-10-16T04:11:40;100436.56;;;15.15;81.85
75455;BME280;64035;48.358;2.122;2022-10-16T04:12:40;100439.94;;;15.14;81.88
75455;BME280;64035;48.358;2.122;2022-10-16T04:13:40;100444.34;;;15.17;81.22
75455;BME280;64035;48.358;2.122;2022-10-16T04:14:41;100440.88;;;15.16;81.68
75455;BME280;64035;48.358;2.122;2022-10-16T04:15:42;100444.41;;;15.18;81.96
75455;BME280;64035;48.358;2.122;2022-10-16T04:16:42;100442.69;;;15.19;81.91
75455;BME280;64035;48.358;2.122;2022-10-16T04:17:42;100443.50;;;15.18;81.79
75455;BME280;64035;48.358;2.122;2022-10-16T04:18:43;100446.09;;;15.18;81.95
75455;BME280;64035;48.358;2.122;2022-10-16T04:19:43;100444.34;;;15.17;81.76
75455;BME280;64035;48.358;2.122;2022-10-16T04:20:44;100453.00;;;15.19;81.80
75455;BME280;64035;48.358;2.122;2022-10-16T04:21:44;100436.56;;;15.15;81.78
75455;BME280;64035;48.358;2.122;2022-10-16T04:22:45;100443.50;;;15.18;82.04
75455;BME280;64035;48.358;2.122;2022-10-16T04:23:45;100442.63;;;15.17;82.13
75455;BME280;64035;48.358;2.122;2022-10-16T04:24:45;100446.97;;;15.18;82.08
75455;BME280;64035;48.358;2.122;2022-10-16T04:25:46;100435.72;;;15.16;81.95
75455;BME280;64035;48.358;2.122;2022-10-16T04:26:46;100446.09;;;15.18;81.86
75455;BME280;64035;48.358;2.122;2022-10-16T04:27:46;100450.38;;;15.17;82.29
75455;BME280;64035;48.358;2.122;2022-10-16T04:28:47;100460.69;;;15.17;82.43
75455;BME280;64035;48.358;2.122;2022-10-16T04:29:47;100459.81;;;15.17;82.45
75455;BME280;64035;48.358;2.122;2022-10-16T04:30:48;100462.38;;;15.17;82.40
75455;BME280;64035;48.358;2.122;2022-10-16T04:31:48;100470.19;;;15.18;82.04
75455;BME280;64035;48.358;2.122;2022-10-16T04:32:50;100475.34;;;15.20;82.41
75455;BME280;64035;48.358;2.122;2022-10-16T04:33:51;100479.66;;;15.19;82.05
75455;BME280;64035;48.358;2.122;2022-10-16T04:34:51;100471.06;;;15.19;82.55
75455;BME280;64035;48.358;2.122;2022-10-16T04:35:58;100483.94;;;15.19;82.34
75455;BME280;64035;48.358;2.122;2022-10-16T04:37:01;100483.97;;;15.20;82.47
75455;BME280;64035;48.358;2.122;2022-10-16T04:38:02;100489.13;;;15.20;82.13
75455;BME280;64035;48.358;2.122;2022-10-16T04:39:02;100483.97;;;15.20;81.98
75455;BME280;64035;48.358;2.122;2022-10-16T04:40:03;100487.47;;;15.22;82.29
75455;BME280;64035;48.358;2.122;2022-10-16T04:41:04;100473.66;;;15.20;81.90
75455;BME280;64035;48.358;2.122;2022-10-16T04:42:04;100478.88;;;15.22;81.90
75455;BME280;64035;48.358;2.122;2022-10-16T04:43:05;100480.63;;;15.23;82.02
75455;BME280;64035;48.358;2.122;2022-10-16T04:44:05;100479.75;;;15.22;81.86
75455;BME280;64035;48.358;2.122;2022-10-16T04:45:06;100485.81;;;15.24;82.03
75455;BME280;64035;48.358;2.122;2022-10-16T04:46:08;100477.97;;;15.21;81.97
75455;BME280;64035;48.358;2.122;2022-10-16T04:47:10;100488.41;;;15.24;82.06
75455;BME280;64035;48.358;2.122;2022-10-16T04:48:10;100491.91;;;15.27;81.88
75455;BME280;64035;48.358;2.122;2022-10-16T04:49:11;100489.28;;;15.25;82.04
75455;BME280;64035;48.358;2.122;2022-10-16T04:50:11;100477.22;;;15.24;82.24
75455;BME280;64035;48.358;2.122;2022-10-16T04:51:11;100466.06;;;15.25;82.24
75455;BME280;64035;48.358;2.122;2022-10-16T04:52:12;100454.09;;;15.27;81.64
75455;BME280;64035;48.358;2.122;2022-10-16T04:53:12;100447.16;;;15.24;81.80
75455;BME280;64035;48.358;2.122;2022-10-16T04:54:12;100455.81;;;15.27;81.84
75455;BME280;64035;48.358;2.122;2022-10-16T04:55:13;100470.44;;;15.28;82.16
75455;BME280;64035;48.358;2.122;2022-10-16T04:56:13;100479.03;;;15.27;82.08
75455;BME280;64035;48.358;2.122;2022-10-16T04:57:15;100483.38;;;15.29;82.19
75455;BME280;64035;48.358;2.122;2022-10-16T04:58:15;100488.53;;;15.29;81.92
75455;BME280;64035;48.358;2.122;2022-10-16T04:59:17;100488.53;;;15.29;82.18
75455;BME280;64035;48.358;2.122;2022-10-16T05:00:18;100481.66;;;15.30;82.04
75455;BME280;64035;48.358;2.122;2022-10-16T05:01:18;100473.06;;;15.29;81.88
75455;BME280;64035;48.358;2.122;2022-10-16T05:02:18;100475.63;;;15.29;82.00
75455;BME280;64035;48.358;2.122;2022-10-16T05:03:19;100477.38;;;15.30;81.33
75455;BME280;64035;48.358;2.122;2022-10-16T05:04:19;100479.19;;;15.33;81.84
75455;BME280;64035;48.358;2.122;2022-10-16T05:05:20;100468.78;;;15.30;81.74
75455;BME280;64035;48.358;2.122;2022-10-16T05:06:20;100473.16;;;15.32;81.74
75455;BME280;64035;48.358;2.122;2022-10-16T05:07:20;100481.72;;;15.31;82.02
75455;BME280;64035;48.358;2.122;2022-10-16T05:08:21;100482.50;;;15.29;82.15
75455;BME280;64035;48.358;2.122;2022-10-16T05:09:21;100485.13;;;15.30;82.03
75455;BME280;64035;48.358;2.122;2022-10-16T05:10:22;100492.91;;;15.32;81.98
75455;BME280;64035;48.358;2.122;2022-10-16T05:11:22;100500.59;;;15.30;82.37
75455;BME280;64035;48.358;2.122;2022-10-16T05:12:22;100502.34;;;15.31;81.94
75455;BME280;64035;48.358;2.122;2022-10-16T05:13:23;100498.84;;;15.29;82.14
75455;BME280;64035;48.358;2.122;2022-10-16T05:14:23;100501.47;;;15.31;82.04
75455;BME280;64035;48.358;2.122;2022-10-16T05:15:24;100511.84;;;15.32;82.12
75455;BME280;64035;48.358;2.122;2022-10-16T05:16:25;100499.78;;;15.31;81.88
75455;BME280;64035;48.358;2.122;2022-10-16T05:17:26;100499.00;;;15.34;82.44
75455;BME280;64035;48.358;2.122;2022-10-16T05:18:26;100491.25;;;15.34;81.67
75455;BME280;64035;48.358;2.122;2022-10-16T05:19:27;100492.16;;;15.36;82.07
75455;BME280;64035;48.358;2.122;2022-10-16T05:20:28;100487.84;;;15.35;81.79
75455;BME280;64035;48.358;2.122;2022-10-16T05:21:28;100491.25;;;15.34;82.08
75455;BME280;64035;48.358;2.122;2022-10-16T05:22:28;100490.47;;;15.36;81.61
75455;BME280;64035;48.358;2.122;2022-10-16T05:23:29;100494.75;;;15.36;81.93
75455;BME280;64035;48.358;2.122;2022-10-16T05:24:29;100494.75;;;15.36;81.64
75455;BME280;64035;48.358;2.122;2022-10-16T05:25:30;100489.56;;;15.34;81.88
75455;BME280;64035;48.358;2.122;2022-10-16T05:26:30;100499.91;;;15.36;82.11
75455;BME280;64035;48.358;2.122;2022-10-16T05:27:30;100502.47;;;15.36;81.74
75455;BME280;64035;48.358;2.122;2022-10-16T05:28:31;100504.25;;;15.37;82.17
75455;BME280;64035;48.358;2.122;2022-10-16T05:29:31;100503.34;;;15.36;81.84
75455;BME280;64035;48.358;2.122;2022-10-16T05:30:32;100499.91;;;15.36;82.23
75455;BME280;64035;48.358;2.122;2022-10-16T05:31:32;100503.34;;;15.36;82.14
75455;BME280;64035;48.358;2.122;2022-10-16T05:32:33;100507.75;;;15.39;82.09
75455;BME280;64035;48.358;2.122;2022-10-16T05:33:33;100496.59;;;15.40;81.83
75455;BME280;64035;48.358;2.122;2022-10-16T05:34:34;100500.06;;;15.40;81.78
75455;BME280;64035;48.358;2.122;2022-10-16T05:35:34;100500.06;;;15.40;81.65
75455;BME280;64035;48.358;2.122;2022-10-16T05:36:35;100503.50;;;15.41;81.63
75455;BME280;64035;48.358;2.122;2022-10-16T05:37:35;100500.94;;;15.41;81.63
75455;BME280;64035;48.358;2.122;2022-10-16T05:38:37;100504.34;;;15.40;81.74
75455;BME280;64035;48.358;2.122;2022-10-16T05:39:40;100499.97;;;15.37;81.83